createdAt,value
2023-10-26T00:02:00.745Z,10.60
2023-10-26T00:04:32.423Z,10.60
2023-10-26T00:07:05.530Z,10.60
2023-10-26T00:09:36.862Z,10.60
2023-10-26T00:12:09.801Z,10.58
2023-10-26T00:14:41.677Z,10.50
2023-10-26T00:17:12.919Z,10.50
2023-10-26T00:19:44.062Z,10.50
2023-10-26T00:28:19.541Z,10.40
2023-10-26T00:30:51.201Z,10.42
2023-10-26T00:33:22.621Z,10.40
2023-10-26T00:35:55.457Z,10.44
2023-10-26T00:38:26.660Z,10.40
2023-10-26T00:40:58.450Z,10.40
2023-10-26T00:43:30.052Z,10.40
2023-10-26T00:46:01.329Z,10.50
2023-10-26T00:48:33.519Z,10.50
2023-10-26T00:51:04.865Z,10.50
2023-10-26T00:53:36.103Z,10.50
2023-10-26T00:56:08.450Z,10.50
2023-10-26T00:58:39.727Z,10.50
2023-10-26T01:01:11.108Z,10.50
2023-10-26T01:03:43.412Z,10.50
2023-10-26T01:06:14.675Z,10.50
2023-10-26T01:08:46.005Z,10.50
2023-10-26T01:11:17.645Z,10.50
2023-10-26T01:13:49.134Z,10.50
2023-10-26T01:16:20.762Z,10.50
2023-10-26T01:18:51.979Z,10.50
2023-10-26T01:21:28.036Z,10.50
2023-10-26T01:23:59.332Z,10.50
2023-10-26T01:26:30.487Z,10.50
2023-10-26T01:29:06.048Z,10.50
2023-10-26T01:31:37.207Z,10.50
2023-10-26T01:34:08.679Z,10.50
2023-10-26T01:36:40.038Z,10.50
2023-10-26T01:39:11.370Z,10.50
2023-10-26T01:41:42.651Z,10.50
2023-10-26T01:44:13.966Z,10.50
2023-10-26T01:46:45.116Z,10.50
2023-10-26T01:49:16.277Z,10.50
2023-10-26T01:51:47.454Z,10.50
2023-10-26T01:54:18.656Z,10.50
2023-10-26T01:56:49.826Z,10.50
2023-10-26T01:59:20.940Z,10.48
2023-10-26T02:01:52.861Z,10.50
2023-10-26T02:04:23.856Z,10.50
2023-10-26T02:06:55.041Z,10.50
2023-10-26T02:09:26.349Z,10.50
2023-10-26T02:11:57.475Z,10.50
2023-10-26T02:14:28.668Z,10.50
2023-10-26T02:16:59.925Z,10.50
2023-10-26T02:19:31.123Z,10.50
2023-10-26T02:22:02.383Z,10.50
2023-10-26T02:24:33.679Z,10.50
2023-10-26T02:27:04.975Z,10.50
2023-10-26T02:29:36.186Z,10.50
2023-10-26T02:32:08.343Z,10.50
2023-10-26T02:34:39.524Z,10.50
2023-10-26T02:37:10.667Z,10.50
2023-10-26T02:39:42.048Z,10.50
2023-10-26T02:42:13.189Z,10.48
2023-10-26T02:44:47.266Z,10.46
2023-10-26T02:47:18.318Z,10.50
2023-10-26T02:49:49.407Z,10.50
2023-10-26T02:52:20.628Z,10.50
2023-10-26T02:54:51.918Z,10.50
2023-10-26T02:57:22.980Z,10.50
2023-10-26T02:59:54.101Z,10.50
2023-10-26T03:02:25.786Z,10.50
2023-10-26T03:04:56.965Z,10.50
2023-10-26T03:07:28.081Z,10.50
2023-10-26T03:09:59.377Z,10.50
2023-10-26T03:12:30.646Z,10.50
2023-10-26T03:15:01.797Z,10.50
2023-10-26T03:19:50.430Z,10.50
2023-10-26T03:22:23.106Z,10.50
2023-10-26T03:24:54.814Z,10.50
2023-10-26T03:27:26.076Z,10.50
2023-10-26T03:29:57.602Z,10.50
2023-10-26T03:32:28.943Z,10.50
2023-10-26T03:35:01.054Z,10.50
2023-10-26T03:37:32.178Z,10.40
2023-10-26T03:40:04.035Z,10.40
2023-10-26T03:42:35.194Z,10.40
2023-10-26T03:45:08.117Z,10.40
2023-10-26T03:47:39.423Z,10.40
2023-10-26T03:50:12.720Z,10.40
2023-10-26T03:52:43.849Z,10.42
2023-10-26T03:55:14.965Z,10.42
2023-10-26T03:57:49.835Z,10.40
2023-10-26T04:00:21.629Z,10.40
2023-10-26T04:02:52.850Z,10.40
2023-10-26T04:05:23.967Z,10.40
2023-10-26T04:07:57.775Z,10.40
2023-10-26T04:10:29.838Z,10.32
2023-10-26T04:13:01.037Z,10.30
2023-10-26T04:15:32.227Z,10.30
2023-10-26T04:18:05.173Z,10.30
2023-10-26T04:20:36.276Z,10.30
2023-10-26T04:23:07.425Z,10.30
2023-10-26T04:25:53.194Z,10.30
2023-10-26T04:28:26.001Z,10.30
2023-10-26T04:30:57.124Z,10.28
2023-10-26T04:33:28.409Z,10.20
2023-10-26T04:36:00.778Z,10.20
2023-10-26T04:38:31.953Z,10.20
2023-10-26T04:41:03.054Z,10.20
2023-10-26T04:43:34.268Z,10.20
2023-10-26T04:46:05.672Z,10.18
2023-10-26T04:48:36.954Z,10.10
2023-10-26T04:51:10.032Z,10.10
2023-10-26T04:53:41.403Z,10.10
2023-10-26T04:56:13.326Z,10.10
2023-10-26T04:58:45.289Z,10.10
2023-10-26T05:01:16.446Z,10.10
2023-10-26T05:03:47.621Z,10.12
2023-10-26T05:06:18.942Z,10.20
2023-10-26T05:08:50.179Z,10.20
2023-10-26T05:11:24.373Z,10.20
2023-10-26T05:13:55.672Z,10.20
2023-10-26T05:16:26.999Z,10.20
2023-10-26T05:18:58.424Z,10.26
2023-10-26T05:21:29.595Z,10.26
2023-10-26T05:24:00.930Z,10.20
2023-10-26T05:26:32.247Z,10.20
2023-10-26T05:29:03.914Z,10.20
2023-10-26T05:31:35.011Z,10.20
2023-10-26T05:34:06.343Z,10.20
2023-10-26T05:36:37.590Z,10.20
2023-10-26T05:39:08.826Z,10.20
2023-10-26T05:41:39.968Z,10.22
2023-10-26T05:44:11.196Z,10.30
2023-10-26T05:46:42.221Z,10.30
2023-10-26T05:49:13.617Z,10.40
2023-10-26T05:51:44.811Z,10.40
2023-10-26T05:54:15.996Z,10.40
2023-10-26T05:56:47.066Z,10.50
2023-10-26T05:59:18.332Z,10.60
2023-10-26T06:01:49.558Z,10.60
2023-10-26T06:04:20.711Z,10.60
2023-10-26T06:06:51.852Z,10.70
2023-10-26T06:09:24.113Z,10.70
2023-10-26T06:11:55.314Z,10.70
2023-10-26T06:14:26.599Z,10.78
2023-10-26T06:16:57.766Z,10.80
2023-10-26T06:19:29.643Z,10.80
2023-10-26T06:22:00.702Z,10.80
2023-10-26T06:24:31.962Z,10.82
2023-10-26T06:27:04.723Z,10.90
2023-10-26T06:29:35.868Z,10.90
2023-10-26T06:35:15.645Z,11.06
2023-10-26T06:37:49.004Z,11.10
2023-10-26T06:40:21.967Z,11.10
2023-10-26T06:42:53.275Z,11.20
2023-10-26T06:45:24.940Z,11.30
2023-10-26T06:47:56.288Z,11.40
2023-10-26T06:50:27.415Z,11.50
2023-10-26T06:52:58.857Z,11.50
2023-10-26T06:55:31.975Z,11.60
2023-10-26T06:58:03.412Z,11.70
2023-10-26T07:00:34.952Z,11.70
2023-10-26T07:03:07.137Z,11.72
2023-10-26T07:05:38.716Z,11.80
2023-10-26T07:08:09.993Z,11.80
2023-10-26T07:10:43.882Z,11.80
2023-10-26T07:13:14.998Z,11.90
2023-10-26T07:15:46.173Z,11.90
2023-10-26T07:18:19.621Z,12.00
2023-10-26T07:20:52.171Z,12.00
2023-10-26T07:23:23.244Z,12.10
2023-10-26T07:25:54.323Z,12.10
2023-10-26T07:28:25.457Z,12.20
2023-10-26T07:30:56.701Z,12.22
2023-10-26T07:33:28.087Z,12.30
2023-10-26T07:35:59.881Z,12.40
2023-10-26T07:38:35.337Z,12.50
2023-10-26T07:41:09.452Z,12.70
2023-10-26T07:43:40.680Z,12.86
2023-10-26T07:46:11.838Z,13.00
2023-10-26T07:48:43.056Z,13.20
2023-10-26T07:51:14.275Z,13.40
2023-10-26T07:53:46.190Z,13.60
2023-10-26T07:56:17.636Z,13.82
2023-10-26T07:58:48.938Z,14.00
2023-10-26T08:01:20.133Z,14.10
2023-10-26T08:03:51.158Z,14.20
2023-10-26T08:06:22.387Z,14.20
2023-10-26T08:08:54.103Z,14.20
2023-10-26T08:11:25.506Z,14.30
2023-10-26T08:13:56.920Z,14.40
2023-10-26T08:16:40.838Z,14.50
2023-10-26T08:19:16.360Z,14.50
2023-10-26T08:21:47.504Z,14.42
2023-10-26T08:24:21.556Z,14.40
2023-10-26T08:26:55.053Z,14.30
2023-10-26T08:29:28.981Z,14.20
2023-10-26T08:32:00.684Z,14.20
2023-10-26T08:34:32.138Z,14.10
2023-10-26T08:39:38.454Z,13.98
2023-10-26T08:42:11.749Z,13.90
2023-10-26T08:44:45.123Z,13.90
2023-10-26T08:47:26.158Z,13.90
2023-10-26T08:50:08.771Z,13.86
2023-10-26T08:52:47.150Z,13.90
2023-10-26T08:55:20.281Z,13.90
2023-10-26T08:57:53.263Z,13.90
2023-10-26T09:00:25.038Z,13.82
2023-10-26T09:02:56.508Z,13.80
2023-10-26T09:05:27.956Z,13.80
2023-10-26T09:07:59.100Z,13.80
2023-10-26T09:10:34.448Z,13.80
2023-10-26T09:13:07.667Z,13.70
2023-10-26T09:15:50.502Z,13.60
2023-10-26T09:18:22.237Z,13.50
2023-10-26T09:21:09.818Z,13.40
2023-10-26T09:23:42.308Z,13.30
2023-10-26T09:26:14.715Z,13.30
2023-10-26T09:28:53.901Z,13.30
2023-10-26T09:31:26.396Z,13.40
2023-10-26T09:33:57.838Z,13.40
2023-10-26T09:36:29.014Z,13.60
2023-10-26T09:39:01.087Z,13.70
2023-10-26T09:41:32.488Z,13.90
2023-10-26T09:44:04.318Z,13.98
2023-10-26T09:46:36.513Z,14.10
2023-10-26T09:49:08.185Z,14.20
2023-10-26T09:51:39.658Z,14.30
2023-10-26T09:54:11.279Z,14.40
2023-10-26T09:56:43.460Z,14.50
2023-10-26T09:59:15.209Z,14.60
2023-10-26T10:01:46.761Z,14.70
2023-10-26T10:04:20.118Z,14.84
2023-10-26T10:06:55.499Z,15.00
2023-10-26T10:09:27.427Z,15.10
2023-10-26T10:12:35.279Z,15.20
2023-10-26T10:18:15.189Z,15.70
2023-10-26T10:20:47.534Z,15.80
2023-10-26T10:23:32.959Z,15.70
2023-10-26T10:26:20.066Z,15.60
2023-10-26T10:28:55.280Z,15.50
2023-10-26T10:31:42.799Z,15.40
2023-10-26T10:34:17.469Z,15.40
2023-10-26T10:37:13.184Z,15.30
2023-10-26T10:40:10.260Z,15.20
2023-10-26T10:42:41.953Z,15.10
2023-10-26T10:45:16.531Z,14.98
2023-10-26T10:47:49.405Z,14.86
2023-10-26T10:50:24.548Z,14.80
2023-10-26T10:52:56.873Z,14.80
2023-10-26T10:55:30.307Z,14.78
2023-10-26T10:58:03.058Z,14.70
2023-10-26T11:00:47.186Z,14.60
2023-10-26T11:03:22.885Z,14.50
2023-10-26T11:05:55.518Z,14.46
2023-10-26T11:08:27.543Z,14.40
2023-10-26T11:10:58.778Z,14.24
2023-10-26T11:13:30.769Z,14.10
2023-10-26T11:16:02.175Z,14.00
2023-10-26T11:18:33.932Z,14.00
2023-10-26T11:21:05.135Z,13.90
2023-10-26T11:23:36.341Z,13.90
2023-10-26T11:26:18.307Z,13.80
2023-10-26T11:28:49.489Z,13.80
2023-10-26T11:31:35.739Z,13.70
2023-10-26T11:34:10.968Z,13.70
2023-10-26T11:36:46.704Z,13.70
2023-10-26T11:39:17.933Z,13.68
2023-10-26T11:41:58.244Z,13.60
2023-10-26T11:44:31.225Z,13.60
2023-10-26T11:47:02.944Z,13.60
2023-10-26T11:49:44.526Z,13.60
2023-10-26T11:52:15.837Z,13.60
2023-10-26T11:54:57.729Z,13.60
2023-10-26T11:57:28.872Z,13.56
2023-10-26T12:00:00.054Z,13.52
2023-10-26T12:02:31.197Z,13.50
2023-10-26T12:05:04.496Z,13.56
2023-10-26T12:07:35.917Z,13.60
2023-10-26T12:10:08.262Z,13.60
2023-10-26T12:12:39.882Z,13.66
2023-10-26T12:15:12.216Z,13.70
2023-10-26T12:17:43.861Z,13.86
2023-10-26T12:20:16.194Z,14.00
2023-10-26T12:22:49.931Z,14.08
2023-10-26T12:25:21.409Z,14.10
2023-10-26T12:28:20.985Z,14.20
2023-10-26T12:30:46.523Z,14.40
2023-10-26T12:33:18.004Z,14.50
2023-10-26T12:35:49.173Z,14.60
2023-10-26T12:38:21.066Z,14.70
2023-10-26T12:40:52.392Z,14.74
2023-10-26T12:43:23.857Z,14.72
2023-10-26T12:45:55.212Z,14.70
2023-10-26T12:48:26.455Z,14.70
2023-10-26T12:50:58.133Z,14.70
2023-10-26T12:53:29.814Z,14.70
2023-10-26T12:56:01.517Z,14.70
2023-10-26T12:58:33.720Z,14.60
2023-10-26T13:01:05.303Z,14.50
2023-10-26T13:03:36.494Z,14.50
2023-10-26T13:06:07.983Z,14.50
2023-10-26T13:08:39.274Z,14.50
2023-10-26T13:11:10.441Z,14.60
2023-10-26T13:13:41.818Z,14.80
2023-10-26T13:16:13.034Z,14.90
2023-10-26T13:18:46.832Z,15.08
2023-10-26T13:21:18.800Z,15.30
2023-10-26T13:23:49.985Z,15.50
2023-10-26T13:26:21.335Z,15.50
2023-10-26T13:28:53.115Z,15.50
2023-10-26T13:31:24.473Z,15.30
2023-10-26T13:33:55.718Z,15.10
2023-10-26T13:36:27.024Z,14.82
2023-10-26T13:38:58.392Z,14.60
2023-10-26T13:41:29.484Z,14.40
2023-10-26T13:44:01.068Z,14.20
2023-10-26T13:46:32.130Z,14.10
2023-10-26T13:49:03.687Z,13.90
2023-10-26T13:51:34.906Z,13.70
2023-10-26T13:54:06.447Z,13.60
2023-10-26T13:56:38.214Z,13.50
2023-10-26T13:59:09.469Z,13.40
2023-10-26T14:01:40.966Z,13.30
2023-10-26T14:04:12.207Z,13.30
2023-10-26T14:06:43.437Z,13.20
2023-10-26T14:09:14.869Z,13.16
2023-10-26T14:11:46.524Z,13.02
2023-10-26T14:14:17.792Z,12.92
2023-10-26T14:16:48.955Z,12.90
2023-10-26T14:19:20.117Z,12.82
2023-10-26T14:21:51.446Z,12.90
2023-10-26T14:24:22.665Z,12.90
2023-10-26T14:26:53.950Z,12.90
2023-10-26T14:29:25.149Z,13.00
2023-10-26T14:31:56.383Z,13.00
2023-10-26T14:34:28.117Z,13.10
2023-10-26T14:37:00.718Z,13.10
2023-10-26T14:39:32.096Z,13.10
2023-10-26T14:42:03.549Z,13.10
2023-10-26T14:44:34.668Z,13.00
2023-10-26T14:47:06.731Z,13.00
2023-10-26T14:49:38.413Z,12.90
2023-10-26T14:52:09.796Z,12.86
2023-10-26T14:54:41.046Z,12.80
2023-10-26T14:57:12.404Z,12.70
2023-10-26T14:59:44.241Z,12.70
2023-10-26T15:02:16.305Z,12.60
2023-10-26T15:04:47.604Z,12.60
2023-10-26T15:07:19.033Z,12.52
2023-10-26T15:10:24.418Z,12.50
2023-10-26T15:12:42.099Z,12.50
2023-10-26T15:15:13.660Z,12.48
2023-10-26T15:17:44.859Z,12.40
2023-10-26T15:20:16.254Z,12.40
2023-10-26T15:22:47.573Z,12.40
2023-10-26T15:25:19.005Z,12.34
2023-10-26T15:27:50.250Z,12.30
2023-10-26T15:30:21.799Z,12.28
2023-10-26T15:32:53.035Z,12.20
2023-10-26T15:35:24.199Z,12.20
2023-10-26T15:37:55.625Z,12.12
2023-10-26T15:40:27.067Z,12.10
2023-10-26T15:42:58.272Z,12.10
2023-10-26T15:45:29.726Z,12.10
2023-10-26T15:48:07.875Z,12.10
2023-10-26T15:50:40.856Z,12.10
2023-10-26T15:53:12.694Z,12.10
2023-10-26T15:55:43.942Z,12.10
2023-10-26T15:58:15.320Z,12.06
2023-10-26T16:00:46.474Z,12.02
2023-10-26T16:03:17.647Z,12.00
2023-10-26T16:05:48.970Z,12.00
2023-10-26T16:08:20.160Z,12.00
2023-10-26T16:10:51.341Z,12.00
2023-10-26T16:13:22.627Z,12.00
2023-10-26T16:15:53.922Z,12.00
2023-10-26T16:18:25.519Z,12.00
2023-10-26T16:20:56.853Z,12.00
2023-10-26T16:23:28.520Z,12.00
2023-10-26T16:26:00.373Z,12.00
2023-10-26T16:28:31.572Z,12.00
2023-10-26T16:31:03.534Z,12.00
2023-10-26T16:33:35.093Z,12.00
2023-10-26T16:36:07.510Z,12.00
2023-10-26T16:38:38.665Z,12.00
2023-10-26T16:41:09.897Z,12.00
2023-10-26T16:43:41.062Z,12.00
2023-10-26T16:46:14.139Z,12.00
2023-10-26T16:48:45.427Z,12.00
2023-10-26T16:51:16.768Z,12.00
2023-10-26T16:53:47.982Z,12.08
2023-10-26T16:56:19.105Z,12.10
2023-10-26T16:58:50.196Z,12.06
2023-10-26T17:01:21.526Z,12.10
2023-10-26T17:03:52.778Z,12.10
2023-10-26T17:06:24.038Z,12.10
2023-10-26T17:08:55.213Z,12.10
2023-10-26T17:11:26.458Z,12.08
2023-10-26T17:13:57.582Z,12.10
2023-10-26T17:16:28.899Z,12.10
2023-10-26T17:19:01.714Z,12.10
2023-10-26T17:21:32.970Z,12.10
2023-10-26T17:24:04.281Z,12.10
2023-10-26T17:26:35.439Z,12.10
2023-10-26T17:29:06.645Z,12.10
2023-10-26T17:31:37.969Z,12.10
2023-10-26T17:34:09.695Z,12.10
2023-10-26T17:36:42.021Z,12.00
2023-10-26T17:39:14.084Z,12.00
2023-10-26T17:41:46.743Z,12.00
2023-10-26T17:44:17.909Z,12.00
2023-10-26T17:46:49.286Z,11.90
2023-10-26T17:49:20.571Z,11.90
2023-10-26T17:51:51.856Z,11.90
2023-10-26T17:54:23.219Z,11.80
2023-10-26T17:56:54.619Z,11.80
2023-10-26T17:59:25.858Z,11.72
2023-10-26T18:01:57.214Z,11.70
2023-10-26T18:04:28.590Z,11.60
2023-10-26T18:07:03.559Z,11.50
2023-10-26T18:09:35.708Z,11.50
2023-10-26T18:12:07.999Z,11.40
2023-10-26T18:14:39.823Z,11.30
2023-10-26T18:17:11.087Z,11.30
2023-10-26T18:19:42.531Z,11.20
2023-10-26T18:22:14.244Z,11.20
2023-10-26T18:24:45.521Z,11.20
2023-10-26T18:27:16.760Z,11.10
2023-10-26T18:29:50.144Z,11.00
2023-10-26T18:32:21.895Z,11.00
2023-10-26T18:34:53.234Z,10.90
2023-10-26T18:37:24.391Z,10.84
2023-10-26T18:39:58.190Z,10.80
2023-10-26T18:42:29.426Z,10.70
2023-10-26T18:45:00.607Z,10.70
2023-10-26T18:47:31.854Z,10.68
2023-10-26T18:50:03.166Z,10.60
2023-10-26T18:52:34.331Z,10.50
2023-10-26T18:55:06.180Z,10.50
2023-10-26T18:57:37.631Z,10.40
2023-10-26T19:00:11.117Z,10.40
2023-10-26T19:02:42.555Z,10.40
2023-10-26T19:05:13.844Z,10.40
2023-10-26T19:07:45.048Z,10.40
2023-10-26T19:10:18.809Z,10.40
2023-10-26T19:12:52.533Z,10.40
2023-10-26T19:15:23.881Z,10.40
2023-10-26T19:17:55.516Z,10.50
2023-10-26T19:20:27.324Z,10.52
2023-10-26T19:22:58.482Z,10.60
2023-10-26T19:25:30.144Z,10.70
2023-10-26T19:28:02.689Z,10.70
2023-10-26T19:30:34.574Z,10.70
2023-10-26T19:33:06.273Z,10.80
2023-10-26T19:35:37.526Z,10.90
2023-10-26T19:38:09.337Z,10.90
2023-10-26T19:40:42.447Z,10.90
2023-10-26T19:43:13.699Z,11.00
2023-10-26T19:45:45.201Z,11.00
2023-10-26T19:48:16.480Z,11.10
2023-10-26T19:50:47.663Z,11.18
2023-10-26T19:53:18.948Z,11.22
2023-10-26T19:55:50.157Z,11.30
2023-10-26T19:58:21.488Z,11.30
2023-10-26T20:00:53.069Z,11.30
2023-10-26T20:03:24.304Z,11.40
2023-10-26T20:05:55.447Z,11.40
2023-10-26T20:08:26.727Z,11.40
2023-10-26T20:10:57.902Z,11.40
2023-10-26T20:13:29.075Z,11.32
2023-10-26T20:16:00.343Z,11.30
2023-10-26T20:18:38.229Z,11.30
2023-10-26T20:21:10.467Z,11.30
2023-10-26T20:23:41.639Z,11.20
2023-10-26T20:26:12.858Z,11.10
2023-10-26T20:28:44.025Z,11.00
2023-10-26T20:31:15.265Z,10.92
2023-10-26T20:33:46.512Z,10.82
2023-10-26T20:36:17.699Z,10.74
2023-10-26T20:38:48.875Z,10.64
2023-10-26T20:41:20.276Z,10.60
2023-10-26T20:43:51.926Z,10.50
2023-10-26T20:46:23.276Z,10.50
2023-10-26T20:48:54.498Z,10.40
2023-10-26T20:51:25.713Z,10.40
2023-10-26T20:53:56.858Z,10.38
2023-10-26T20:56:28.077Z,10.30
2023-10-26T20:58:59.199Z,10.30
2023-10-26T21:01:30.523Z,10.30
2023-10-26T21:04:01.706Z,10.30
2023-10-26T21:06:32.755Z,10.30
2023-10-26T21:09:05.841Z,10.30
2023-10-26T21:11:36.979Z,10.40
2023-10-26T21:14:08.338Z,10.40
2023-10-26T21:16:40.361Z,10.40
2023-10-26T21:19:12.017Z,10.42
2023-10-26T21:21:43.370Z,10.50
2023-10-26T21:24:14.672Z,10.50
2023-10-26T21:26:45.712Z,10.50
2023-10-26T21:29:17.172Z,10.50
2023-10-26T21:31:48.319Z,10.50
2023-10-26T21:34:19.525Z,10.50
2023-10-26T21:36:50.710Z,10.50
2023-10-26T21:39:21.897Z,10.50
2023-10-26T21:41:53.072Z,10.50
2023-10-26T21:44:24.329Z,10.50
2023-10-26T21:46:55.558Z,10.40
2023-10-26T21:49:26.651Z,10.36
2023-10-26T21:51:57.955Z,10.30
2023-10-26T21:54:29.166Z,10.30
2023-10-26T21:57:00.409Z,10.20
2023-10-26T21:59:31.652Z,10.20
2023-10-26T22:02:02.788Z,10.20
2023-10-26T22:04:34.083Z,10.20
2023-10-26T22:07:05.631Z,10.20
2023-10-26T22:09:48.512Z,10.14
2023-10-26T22:12:23.629Z,10.10
2023-10-26T22:14:55.170Z,10.10
2023-10-26T22:17:26.576Z,10.10
2023-10-26T22:19:58.040Z,10.10
2023-10-26T22:22:29.220Z,10.10
2023-10-26T22:25:00.461Z,10.10
2023-10-26T22:27:33.614Z,10.10
2023-10-26T22:30:05.077Z,10.10
2023-10-26T22:32:36.405Z,10.10
2023-10-26T22:35:08.191Z,10.14
2023-10-26T22:37:39.534Z,10.20
2023-10-26T22:40:12.618Z,10.20
2023-10-26T22:49:54.029Z,10.30
2023-10-26T22:52:23.046Z,10.30
2023-10-26T22:54:51.788Z,10.30
2023-10-26T22:57:20.462Z,10.40
2023-10-26T22:59:49.273Z,10.40
2023-10-26T23:02:17.875Z,10.40
2023-10-26T23:04:46.628Z,10.40
2023-10-26T23:07:16.524Z,10.40
2023-10-26T23:09:45.468Z,10.50
2023-10-26T23:12:14.519Z,10.58
2023-10-26T23:14:43.107Z,10.60
2023-10-26T23:17:12.372Z,10.60
2023-10-26T23:19:40.992Z,10.64
2023-10-26T23:22:10.419Z,10.70
2023-10-26T23:24:39.485Z,10.70
2023-10-26T23:27:08.036Z,10.70
2023-10-26T23:29:36.624Z,10.70
2023-10-26T23:32:06.416Z,10.70
2023-10-26T23:34:34.926Z,10.70
2023-10-26T23:37:03.529Z,10.70
2023-10-26T23:39:36.029Z,10.70
2023-10-26T23:42:05.194Z,10.70
2023-10-26T23:44:33.538Z,10.70
2023-10-26T23:47:01.984Z,10.70
2023-10-26T23:49:30.727Z,10.70
2023-10-26T23:51:59.300Z,10.70
2023-10-26T23:54:27.840Z,10.70
2023-10-26T23:56:56.336Z,10.72
2023-10-26T23:59:24.782Z,10.80
